Waasis, Canada
Current Conditions -  °F | °C
As of 6:00 AM on Monday 22 Dec 2014 (Local Time) from CYFC Reporting Station
Overcast Overcast  
Wind Chill: 16°   Ceiling: 3400
Heat Index: 25°   Visibility: 9mi
Dew Point: 25°   Wind: 8mph
Humidity: 100%   Direction: 60°ENE
Pressure: 30.42"   Gusts: NA
Location:  45.83°N, 66.58°W
Report Text: CYFC 221000Z AUTO 06007KT 9SM OVC034 M04/M04 A3042 RMK SLP303
Loading
Personal Weather Stations






























Interactive Weather Map New forecast layout! Learn more

10-Day Weather Forecast

Advertisements
Track Severe Weather on mobile